San Francisco, CA

4:24 PM PDT on July 25, 2016 (GMT -0700)
San Francisco International | | Change Station

Elev 16 ft 37.62 °N, 122.37 °W | Updated 28 minutes ago

Partly Cloudy
Partly Cloudy
71 °F
Feels Like 71 °F
N
15
Wind Variable Wind from WNW

Today
High -- | Low -- °F
--% Chance of Precip.
Yesterday
High -- | Low -- °F
Precip. -- in
Pressure 29.91 in
Visibility 10.0 miles
Clouds Few 800 ft
Dew Point 53 °F
Humidity 53%
Rainfall 0.00 in
Snow Depth Not available.
6:08 AM 8:23 PM
Waning Gibbous, 61% visible
METAR KSFO 252256Z 30013KT 10SM FEW008 22/12 A2991 RMK AO2 SLP129 T02170117
Pressure 29.91 in
Visibility 10.0 miles
Clouds Few 800 ft
Dew Point 53 °F
Humidity 53%
Rainfall 0.00 in
Snow Depth Not available.
6:08 AM 8:23 PM
Waning Gibbous, 61% visible
METAR KSFO 252256Z 30013KT 10SM FEW008 22/12 A2991 RMK AO2 SLP129 T02170117

10-Day Weather Forecast

Almanac

Astronomy

Jul. 25, 2016 Rise Set
Actual Time
Civil Twilight
Nautical Twilight
Astronomical Twilight
Moon
Length of Visible Light
Length of Day
Tomorrow will be .
, % of the Moon is Illuminated

Today's Extremes

State Highs State Lows

Community

WunderPhotos

Upload Photos

1,927,444 photos uploaded!

WunderBlog® & News

Nearby

Air Quality

  Air Quality AQ Index Pollutant
Not available.

Snow Depth

Station Depth Elevation

Earthquake Activity

City Distance Mag. Time & Date
Minimum magnitude displayed is 2.5.

Coastal Water Temperatures

Place Temperature

Stations

Nearby Weather Stations

Station Location Temp. Windchill Dew Point Humidity Wind Precip. Elev Updated Type
                   

Watches & Warnings

There are currently no watches in effect.